createdAt,value
2023-11-07T00:04:26.206Z,101452.72
2023-11-07T00:09:19.283Z,101452.94
2023-11-07T00:14:12.398Z,101460.72
2023-11-07T00:19:07.097Z,101461.88
2023-11-07T00:24:01.967Z,101465.34
2023-11-07T00:28:54.987Z,101464.88
2023-11-07T00:33:48.223Z,101471.31
2023-11-07T00:38:41.283Z,101461.38
2023-11-07T00:43:37.031Z,101466.22
2023-11-07T00:48:30.261Z,101478.53
2023-11-07T00:53:24.424Z,101481.47
2023-11-07T00:58:21.877Z,101480.69
2023-11-07T01:03:16.428Z,101487.38
2023-11-07T01:08:09.568Z,101500.22
2023-11-07T01:13:02.638Z,101489.22
2023-11-07T01:17:55.802Z,101493.09
2023-11-07T01:22:51.275Z,101494.44
2023-11-07T01:27:46.700Z,101499.94
2023-11-07T01:32:40.830Z,101493.22
2023-11-07T01:37:34.070Z,101498.34
2023-11-07T01:42:28.422Z,101505.72
2023-11-07T01:47:24.355Z,101502.94
2023-11-07T01:52:19.030Z,101503.41
2023-11-07T01:57:12.649Z,101520.69
2023-11-07T02:02:11.408Z,101525.28
2023-11-07T02:07:04.682Z,101527.22
2023-11-07T02:11:57.726Z,101533.00
2023-11-07T02:16:50.761Z,101533.19
2023-11-07T02:21:45.987Z,101536.72
2023-11-07T02:26:40.488Z,101536.72
2023-11-07T02:31:33.483Z,101548.88
2023-11-07T02:36:26.520Z,101550.41
2023-11-07T02:41:19.521Z,101564.75
2023-11-07T02:46:13.955Z,101565.56
2023-11-07T02:51:07.240Z,101570.66
2023-11-07T02:56:00.309Z,101572.75
2023-11-07T03:00:53.530Z,101571.53
2023-11-07T03:05:48.441Z,101574.63
2023-11-07T03:10:41.510Z,101562.94
2023-11-07T03:15:34.635Z,101571.66
2023-11-07T03:20:28.609Z,101570.09
2023-11-07T03:25:23.096Z,101576.47
2023-11-07T03:30:16.151Z,101582.97
2023-11-07T03:35:10.207Z,101587.50
2023-11-07T03:40:04.464Z,101586.31
2023-11-07T03:44:58.987Z,101592.03
2023-11-07T03:49:52.065Z,101587.56
2023-11-07T03:54:45.284Z,101591.19
2023-11-07T03:59:38.348Z,101596.94
2023-11-07T04:04:32.859Z,101603.41
2023-11-07T04:09:25.847Z,101605.50
2023-11-07T04:14:19.842Z,101605.72
2023-11-07T04:19:12.914Z,101602.91
2023-11-07T04:24:07.981Z,101605.19
2023-11-07T04:29:01.021Z,101609.22
2023-11-07T04:33:54.106Z,101613.00
2023-11-07T04:38:47.339Z,101617.81
2023-11-07T04:43:41.761Z,101621.59
2023-11-07T04:48:35.027Z,101614.94
2023-11-07T04:53:29.332Z,101615.78
2023-11-07T04:58:22.477Z,101607.97
2023-11-07T05:03:17.609Z,101612.94
2023-11-07T05:08:10.773Z,101624.50
2023-11-07T05:13:03.916Z,101626.34
2023-11-07T05:17:57.160Z,101632.53
2023-11-07T05:22:51.816Z,101643.19
2023-11-07T05:27:44.882Z,101656.06
2023-11-07T05:32:37.933Z,101654.38
2023-11-07T05:37:31.132Z,101667.16
2023-11-07T05:42:25.567Z,101676.72
2023-11-07T05:47:18.698Z,101680.72
2023-11-07T05:52:11.886Z,101684.59
2023-11-07T05:57:05.264Z,101685.06
2023-11-07T06:01:59.870Z,101687.50
2023-11-07T06:06:53.752Z,101693.03
2023-11-07T06:11:46.847Z,101697.31
2023-11-07T06:16:42.182Z,101700.75
2023-11-07T06:21:36.848Z,101719.47
2023-11-07T06:26:29.879Z,101718.91
2023-11-07T06:31:26.348Z,101727.59
2023-11-07T06:36:19.587Z,101733.66
2023-11-07T06:41:14.288Z,101738.81
2023-11-07T06:46:07.960Z,101736.09
2023-11-07T06:51:03.423Z,101731.03
2023-11-07T06:55:56.557Z,101732.47
2023-11-07T07:00:51.349Z,101730.63
2023-11-07T07:05:44.409Z,101734.03
2023-11-07T07:10:38.648Z,101733.47
2023-11-07T07:15:31.595Z,101727.00
2023-11-07T07:20:30.548Z,101733.78
2023-11-07T07:25:28.318Z,101728.94
2023-11-07T07:30:23.618Z,101724.84
2023-11-07T07:35:17.184Z,101721.81
2023-11-07T07:40:15.961Z,101721.91
2023-11-07T07:45:09.661Z,101729.88
2023-11-07T07:50:02.698Z,101731.69
2023-11-07T07:55:09.405Z,101724.56
2023-11-07T08:00:13.407Z,101726.41
2023-11-07T08:05:07.696Z,101726.38
2023-11-07T08:10:00.766Z,101731.13
2023-11-07T08:14:54.507Z,101721.53
2023-11-07T08:19:50.629Z,101718.47
2023-11-07T08:24:43.823Z,101712.13
2023-11-07T08:29:36.727Z,101709.84
2023-11-07T08:34:34.190Z,101699.72
2023-11-07T08:39:30.109Z,101699.72
2023-11-07T08:44:23.291Z,101697.56
2023-11-07T08:49:17.724Z,101698.16
2023-11-07T08:54:10.928Z,101698.03
2023-11-07T08:59:05.440Z,101683.81
2023-11-07T09:03:58.615Z,101679.69
2023-11-07T09:08:51.791Z,101666.31
2023-11-07T09:13:44.847Z,101666.34
2023-11-07T09:18:39.640Z,101672.88
2023-11-07T09:23:33.502Z,101666.03
2023-11-07T09:28:26.744Z,101670.59
2023-11-07T09:33:20.677Z,101668.72
2023-11-07T09:38:15.553Z,101651.50
2023-11-07T09:43:08.616Z,101648.16
2023-11-07T09:48:01.927Z,101632.22
2023-11-07T09:52:56.468Z,101622.00
2023-11-07T09:58:05.167Z,101614.88
2023-11-07T10:03:09.881Z,101611.50
2023-11-07T10:08:02.951Z,101598.94
2023-11-07T10:13:08.108Z,101581.16
2023-11-07T10:18:02.449Z,101580.31
2023-11-07T10:22:57.452Z,101563.59
2023-11-07T10:27:55.052Z,101558.38
2023-11-07T10:32:55.186Z,101558.31
2023-11-07T10:37:48.207Z,101549.69
2023-11-07T10:42:47.035Z,101549.88
2023-11-07T10:47:41.058Z,101533.09
2023-11-07T10:52:35.699Z,101528.56
2023-11-07T10:57:32.502Z,101521.75
2023-11-07T11:02:28.780Z,101513.53
2023-11-07T11:07:22.612Z,101511.44
2023-11-07T11:12:19.807Z,101515.28
2023-11-07T11:17:20.420Z,101505.66
2023-11-07T11:22:20.392Z,101515.59
2023-11-07T11:27:15.802Z,101500.50
2023-11-07T11:32:23.684Z,101496.81
2023-11-07T11:37:18.032Z,101504.22
2023-11-07T11:42:12.937Z,101508.97
2023-11-07T11:47:10.709Z,101505.59
2023-11-07T11:52:08.386Z,101487.00
2023-11-07T11:57:07.525Z,101493.59
2023-11-07T12:02:04.950Z,101494.38
2023-11-07T12:07:18.808Z,101491.84
2023-11-07T12:12:14.601Z,101485.88
2023-11-07T12:17:07.661Z,101477.41
2023-11-07T12:22:00.788Z,101476.97
2023-11-07T12:26:53.913Z,101470.91
2023-11-07T12:31:56.761Z,101460.63
2023-11-07T12:36:50.327Z,101460.50
2023-11-07T12:41:43.409Z,101453.25
2023-11-07T12:46:36.641Z,101466.63
2023-11-07T12:51:32.366Z,101467.09
2023-11-07T12:56:27.114Z,101463.53
2023-11-07T13:01:25.283Z,101458.88
2023-11-07T13:06:21.523Z,101445.88
2023-11-07T13:11:17.190Z,101448.16
2023-11-07T13:16:10.450Z,101442.31
2023-11-07T13:21:04.351Z,101439.31
2023-11-07T13:25:57.888Z,101437.28
2023-11-07T13:30:53.928Z,101444.03
2023-11-07T13:35:53.121Z,101447.47
2023-11-07T13:40:46.774Z,101447.22
2023-11-07T13:45:40.181Z,101447.16
2023-11-07T13:50:35.030Z,101442.78
2023-11-07T13:55:28.765Z,101445.66
2023-11-07T14:00:22.490Z,101440.16
2023-11-07T14:05:16.352Z,101437.41
2023-11-07T14:10:14.792Z,101435.97
2023-11-07T14:15:11.214Z,101436.84
2023-11-07T14:20:11.295Z,101439.03
2023-11-07T14:25:05.180Z,101441.56
2023-11-07T14:30:14.681Z,101437.19
2023-11-07T14:35:17.255Z,101435.84
2023-11-07T14:40:13.650Z,101431.19
2023-11-07T14:45:10.638Z,101421.34
2023-11-07T14:50:04.177Z,101418.78
2023-11-07T14:54:57.197Z,101426.88
2023-11-07T14:59:50.322Z,101411.91
2023-11-07T15:04:44.980Z,101420.66
2023-11-07T15:09:38.039Z,101429.97
2023-11-07T15:14:31.166Z,101430.66
2023-11-07T15:19:24.389Z,101434.25
2023-11-07T15:24:21.110Z,101435.06
2023-11-07T15:29:14.430Z,101441.81
2023-11-07T15:34:07.698Z,101444.50
2023-11-07T15:39:00.960Z,101449.03
2023-11-07T15:43:57.050Z,101458.69
2023-11-07T15:48:50.216Z,101454.91
2023-11-07T15:53:43.407Z,101447.94
2023-11-07T15:58:36.903Z,101456.47
2023-11-07T16:03:31.557Z,101461.28
2023-11-07T16:08:27.229Z,101465.25
2023-11-07T16:13:21.073Z,101454.31
2023-11-07T16:18:14.324Z,101452.88
2023-11-07T16:23:10.635Z,101457.56
2023-11-07T16:28:06.883Z,101451.16
2023-11-07T16:33:00.230Z,101451.66
2023-11-07T16:37:53.442Z,101447.94
2023-11-07T16:42:49.813Z,101450.06
2023-11-07T16:47:43.249Z,101454.22
2023-11-07T16:52:36.603Z,101454.84
2023-11-07T16:57:29.955Z,101456.78
2023-11-07T17:02:24.992Z,101455.16
2023-11-07T17:07:18.253Z,101438.16
2023-11-07T17:12:11.613Z,101432.47
2023-11-07T17:17:06.649Z,101433.16
2023-11-07T17:22:01.357Z,101433.88
2023-11-07T17:26:54.547Z,101447.38
2023-11-07T17:31:47.851Z,101451.78
2023-11-07T17:36:40.949Z,101450.25
2023-11-07T17:41:36.553Z,101439.25
2023-11-07T17:46:30.178Z,101431.34
2023-11-07T17:51:24.375Z,101432.78
2023-11-07T17:56:17.624Z,101430.28
2023-11-07T18:01:15.682Z,101427.00
2023-11-07T18:06:10.661Z,101434.22
2023-11-07T18:11:04.015Z,101431.78
2023-11-07T18:15:58.081Z,101432.69
2023-11-07T18:20:52.981Z,101437.78
2023-11-07T18:25:48.370Z,101441.06
2023-11-07T18:30:41.481Z,101436.63
2023-11-07T18:35:34.649Z,101438.94
2023-11-07T18:40:29.210Z,101445.56
2023-11-07T18:45:22.376Z,101438.25
2023-11-07T18:50:16.776Z,101437.75
2023-11-07T18:55:10.943Z,101441.66
2023-11-07T19:00:08.110Z,101448.16
2023-11-07T19:05:01.337Z,101431.19
2023-11-07T19:09:54.761Z,101437.09
2023-11-07T19:14:47.834Z,101431.44
2023-11-07T19:19:42.604Z,101437.19
2023-11-07T19:24:35.718Z,101440.19
2023-11-07T19:29:29.121Z,101443.47
2023-11-07T19:34:24.087Z,101457.19
2023-11-07T19:39:22.027Z,101455.28
2023-11-07T19:44:16.844Z,101458.31
2023-11-07T19:49:11.153Z,101447.50
2023-11-07T19:54:04.784Z,101443.75
2023-11-07T19:59:00.784Z,101433.28
2023-11-07T20:03:55.176Z,101431.09
2023-11-07T20:08:49.636Z,101426.25
2023-11-07T20:13:42.650Z,101418.72
2023-11-07T20:18:37.588Z,101418.19
2023-11-07T20:23:33.448Z,101408.13
2023-11-07T20:28:26.852Z,101400.47
2023-11-07T20:33:22.206Z,101401.00
2023-11-07T20:38:16.830Z,101408.59
2023-11-07T20:43:10.583Z,101408.25
2023-11-07T20:48:04.201Z,101403.44
2023-11-07T20:52:57.516Z,101406.56
2023-11-07T20:57:58.671Z,101393.09
2023-11-07T21:02:57.354Z,101403.94
2023-11-07T21:07:50.488Z,101406.13
2023-11-07T21:12:43.742Z,101394.28
2023-11-07T21:17:38.663Z,101386.56
2023-11-07T21:22:31.796Z,101388.13
2023-11-07T21:27:25.377Z,101391.28
2023-11-07T21:32:18.577Z,101387.53
2023-11-07T21:37:13.016Z,101366.41
2023-11-07T21:42:06.838Z,101370.25
2023-11-07T21:47:01.431Z,101375.44
2023-11-07T21:51:54.451Z,101367.78
2023-11-07T21:56:49.712Z,101364.63
2023-11-07T22:01:42.839Z,101360.94
2023-11-07T22:06:36.009Z,101345.78
2023-11-07T22:11:29.098Z,101344.41
2023-11-07T22:16:23.531Z,101336.22
2023-11-07T22:21:16.915Z,101339.44
2023-11-07T22:26:10.047Z,101325.28
2023-11-07T22:31:03.085Z,101322.22
2023-11-07T22:35:57.550Z,101318.53
2023-11-07T22:40:51.054Z,101303.25
2023-11-07T22:45:44.223Z,101282.34
2023-11-07T22:50:37.333Z,101283.38
2023-11-07T22:55:31.780Z,101264.56
2023-11-07T23:00:32.298Z,101252.00
2023-11-07T23:05:25.290Z,101237.88
2023-11-07T23:10:18.313Z,101237.13
2023-11-07T23:15:12.890Z,101243.59
2023-11-07T23:20:07.909Z,101251.72
2023-11-07T23:25:02.170Z,101247.53
2023-11-07T23:29:57.456Z,101245.00
2023-11-07T23:34:51.993Z,101237.94
2023-11-07T23:39:44.964Z,101226.66
2023-11-07T23:44:37.989Z,101230.66
2023-11-07T23:49:31.759Z,101223.44
2023-11-07T23:54:26.464Z,101232.97
2023-11-07T23:59:19.570Z,101233.34
